createdAt,value
2022-11-24T00:01:12.656Z,98.99
2022-11-24T00:03:39.459Z,98.92
2022-11-24T00:06:07.823Z,98.90
2022-11-24T00:08:34.666Z,98.90
2022-11-24T00:11:06.053Z,98.24
2022-11-24T00:13:33.482Z,98.58
2022-11-24T00:16:08.051Z,98.05
2022-11-24T00:18:36.043Z,98.41
2022-11-24T00:21:02.584Z,98.52
2022-11-24T00:23:29.310Z,98.86
2022-11-24T00:25:55.995Z,98.57
2022-11-24T00:28:22.590Z,98.44
2022-11-24T00:30:49.173Z,98.96
2022-11-24T00:33:15.763Z,98.53
2022-11-24T00:35:43.589Z,98.90
2022-11-24T00:38:10.247Z,99.26
2022-11-24T00:40:36.794Z,99.94
2022-11-24T00:43:03.369Z,99.96
2022-11-24T00:45:29.983Z,99.73
2022-11-24T00:47:56.534Z,100.00
2022-11-24T00:50:23.225Z,99.82
2022-11-24T00:52:51.157Z,99.54
2022-11-24T00:55:17.645Z,99.83
2022-11-24T00:57:44.209Z,99.41
2022-11-24T01:00:11.309Z,99.67
2022-11-24T01:02:37.904Z,100.00
2022-11-24T01:05:05.262Z,99.56
2022-11-24T01:07:31.950Z,100.00
2022-11-24T01:10:00.199Z,99.65
2022-11-24T01:12:26.915Z,100.00
2022-11-24T01:14:53.449Z,99.86
2022-11-24T01:17:20.224Z,100.00
2022-11-24T01:19:46.735Z,100.00
2022-11-24T01:22:13.557Z,100.00
2022-11-24T01:24:40.122Z,100.00
2022-11-24T01:27:08.062Z,100.00
2022-11-24T01:29:34.661Z,100.00
2022-11-24T01:32:01.235Z,100.00
2022-11-24T01:34:27.731Z,100.00
2022-11-24T01:36:54.358Z,100.00
2022-11-24T01:39:20.874Z,100.00
2022-11-24T01:41:47.403Z,100.00
2022-11-24T01:44:23.251Z,100.00
2022-11-24T01:46:52.975Z,100.00
2022-11-24T01:49:24.605Z,100.00
2022-11-24T01:51:54.158Z,100.00
2022-11-24T01:54:23.915Z,100.00
2022-11-24T01:56:54.562Z,100.00
2022-11-24T01:59:22.623Z,100.00
2022-11-24T02:01:51.421Z,100.00
2022-11-24T02:04:23.777Z,100.00
2022-11-24T02:06:52.569Z,100.00
2022-11-24T02:09:23.820Z,100.00
2022-11-24T02:11:53.266Z,100.00
2022-11-24T02:14:23.632Z,100.00
2022-11-24T02:16:51.534Z,100.00
2022-11-24T02:19:26.484Z,100.00
2022-11-24T02:21:53.221Z,100.00
2022-11-24T02:24:25.135Z,100.00
2022-11-24T02:26:52.928Z,100.00
2022-11-24T02:29:19.586Z,100.00
2022-11-24T02:31:49.393Z,100.00
2022-11-24T02:34:15.966Z,100.00
2022-11-24T02:36:42.493Z,100.00
2022-11-24T02:39:11.007Z,100.00
2022-11-24T02:41:38.207Z,100.00
2022-11-24T02:44:06.296Z,100.00
2022-11-24T02:46:32.868Z,100.00
2022-11-24T02:48:59.449Z,100.00
2022-11-24T02:51:26.089Z,100.00
2022-11-24T02:53:52.579Z,100.00
2022-11-24T02:56:19.193Z,100.00
2022-11-24T02:58:45.699Z,100.00
2022-11-24T03:01:13.643Z,100.00
2022-11-24T03:03:40.241Z,100.00
2022-11-24T03:06:06.774Z,100.00
2022-11-24T03:08:33.323Z,100.00
2022-11-24T03:11:01.039Z,100.00
2022-11-24T03:13:27.583Z,100.00
2022-11-24T03:15:54.160Z,100.00
2022-11-24T03:18:22.270Z,100.00
2022-11-24T03:20:48.936Z,100.00
2022-11-24T03:23:15.430Z,100.00
2022-11-24T03:25:41.987Z,100.00
2022-11-24T03:28:08.491Z,100.00
2022-11-24T03:30:35.047Z,100.00
2022-11-24T03:33:01.570Z,100.00
2022-11-24T03:35:29.405Z,100.00
2022-11-24T03:37:55.897Z,100.00
2022-11-24T03:40:22.487Z,100.00
2022-11-24T03:42:48.961Z,100.00
2022-11-24T03:45:45.669Z,100.00
2022-11-24T03:48:02.271Z,100.00
2022-11-24T03:50:30.201Z,100.00
2022-11-24T03:52:57.033Z,100.00
2022-11-24T03:55:23.549Z,100.00
2022-11-24T03:57:50.124Z,100.00
2022-11-24T04:00:17.607Z,100.00
2022-11-24T04:02:44.372Z,100.00
2022-11-24T04:05:11.034Z,100.00
2022-11-24T04:07:39.220Z,100.00
2022-11-24T04:10:07.080Z,100.00
2022-11-24T04:12:33.636Z,100.00
2022-11-24T04:15:00.162Z,100.00
2022-11-24T04:17:28.048Z,100.00
2022-11-24T04:19:54.576Z,100.00
2022-11-24T04:22:21.125Z,100.00
2022-11-24T04:24:49.002Z,100.00
2022-11-24T04:27:15.582Z,100.00
2022-11-24T04:29:42.084Z,100.00
2022-11-24T04:32:08.670Z,100.00
2022-11-24T04:34:35.569Z,100.00
2022-11-24T04:37:02.499Z,100.00
2022-11-24T04:39:29.080Z,100.00
2022-11-24T04:41:57.086Z,100.00
2022-11-24T04:44:23.601Z,100.00
2022-11-24T04:46:50.273Z,100.00
2022-11-24T04:49:17.106Z,100.00
2022-11-24T04:51:44.144Z,100.00
2022-11-24T04:54:12.290Z,100.00
2022-11-24T04:56:39.377Z,100.00
2022-11-24T04:59:08.688Z,100.00
2022-11-24T05:01:35.471Z,100.00
2022-11-24T05:04:02.092Z,100.00
2022-11-24T05:06:28.717Z,100.00
2022-11-24T05:08:55.324Z,100.00
2022-11-24T05:11:21.955Z,100.00
2022-11-24T05:13:48.455Z,100.00
2022-11-24T05:16:16.445Z,100.00
2022-11-24T05:18:43.006Z,100.00
2022-11-24T05:21:09.646Z,100.00
2022-11-24T05:23:36.147Z,100.00
2022-11-24T05:26:03.204Z,100.00
2022-11-24T05:28:30.257Z,100.00
2022-11-24T05:30:59.566Z,100.00
2022-11-24T05:33:27.832Z,100.00
2022-11-24T05:35:54.689Z,100.00
2022-11-24T05:38:21.286Z,100.00
2022-11-24T05:40:48.387Z,100.00
2022-11-24T05:43:16.392Z,100.00
2022-11-24T05:45:43.086Z,100.00
2022-11-24T05:48:12.315Z,100.00
2022-11-24T05:50:40.544Z,100.00
2022-11-24T05:53:10.006Z,100.00
2022-11-24T05:55:37.140Z,100.00
2022-11-24T05:58:06.016Z,100.00
2022-11-24T06:00:34.674Z,100.00
2022-11-24T06:03:02.062Z,100.00
2022-11-24T06:05:29.840Z,100.00
2022-11-24T06:07:59.010Z,100.00
2022-11-24T06:10:25.812Z,100.00
2022-11-24T06:12:52.764Z,100.00
2022-11-24T06:15:19.776Z,100.00
2022-11-24T06:17:52.988Z,100.00
2022-11-24T06:20:19.749Z,100.00
2022-11-24T06:22:46.538Z,100.00
2022-11-24T06:25:14.499Z,100.00
2022-11-24T06:27:41.048Z,100.00
2022-11-24T06:30:09.206Z,100.00
2022-11-24T06:32:35.722Z,100.00
2022-11-24T06:35:02.472Z,100.00
2022-11-24T06:37:28.985Z,100.00
2022-11-24T06:39:55.609Z,100.00
2022-11-24T06:42:23.497Z,100.00
2022-11-24T06:44:50.130Z,100.00
2022-11-24T06:47:16.717Z,100.00
2022-11-24T06:49:43.311Z,100.00
2022-11-24T06:52:09.777Z,100.00
2022-11-24T06:54:36.667Z,100.00
2022-11-24T06:57:03.759Z,100.00
2022-11-24T06:59:32.208Z,100.00
2022-11-24T07:01:58.710Z,100.00
2022-11-24T07:04:25.288Z,100.00
2022-11-24T07:06:51.798Z,100.00
2022-11-24T07:09:18.369Z,100.00
2022-11-24T07:11:44.880Z,100.00
2022-11-24T07:14:11.457Z,100.00
2022-11-24T07:16:39.881Z,100.00
2022-11-24T07:19:06.610Z,100.00
2022-11-24T07:21:33.120Z,100.00
2022-11-24T07:23:59.664Z,100.00
2022-11-24T07:26:26.618Z,100.00
2022-11-24T07:28:53.207Z,100.00
2022-11-24T07:31:22.029Z,100.00
2022-11-24T07:33:50.530Z,100.00
2022-11-24T07:36:17.393Z,100.00
2022-11-24T07:38:44.083Z,100.00
2022-11-24T07:41:13.143Z,100.00
2022-11-24T07:43:40.264Z,100.00
2022-11-24T07:46:15.299Z,100.00
2022-11-24T07:48:42.102Z,100.00
2022-11-24T07:51:09.974Z,100.00
2022-11-24T07:53:37.021Z,100.00
2022-11-24T07:56:05.111Z,100.00
2022-11-24T07:58:33.412Z,100.00
2022-11-24T08:01:00.475Z,100.00
2022-11-24T08:03:27.406Z,100.00
2022-11-24T08:06:22.358Z,100.00
2022-11-24T08:08:42.493Z,100.00
2022-11-24T08:11:11.631Z,100.00
2022-11-24T08:13:38.823Z,100.00
2022-11-24T08:16:07.280Z,100.00
2022-11-24T08:18:34.253Z,100.00
2022-11-24T08:21:00.821Z,100.00
2022-11-24T08:23:27.843Z,100.00
2022-11-24T08:25:57.090Z,100.00
2022-11-24T08:28:24.266Z,100.00
2022-11-24T08:30:50.889Z,100.00
2022-11-24T08:33:17.521Z,100.00
2022-11-24T08:35:44.032Z,100.00
2022-11-24T08:38:10.608Z,100.00
2022-11-24T08:40:37.248Z,100.00
2022-11-24T08:43:05.100Z,100.00
2022-11-24T08:45:34.287Z,100.00
2022-11-24T08:48:03.657Z,100.00
2022-11-24T08:50:30.147Z,100.00
2022-11-24T08:52:56.715Z,100.00
2022-11-24T08:55:23.201Z,100.00
2022-11-24T08:57:49.752Z,100.00
2022-11-24T09:00:18.174Z,100.00
2022-11-24T09:02:44.734Z,100.00
2022-11-24T09:05:43.320Z,100.00
2022-11-24T09:07:58.216Z,100.00
2022-11-24T09:10:24.746Z,100.00
2022-11-24T09:12:51.285Z,100.00
2022-11-24T09:15:19.117Z,100.00
2022-11-24T09:17:46.236Z,100.00
2022-11-24T09:20:13.019Z,100.00
2022-11-24T09:22:39.592Z,100.00
2022-11-24T09:25:06.692Z,100.00
2022-11-24T09:27:33.461Z,100.00
2022-11-24T09:30:00.045Z,100.00
2022-11-24T09:32:28.858Z,100.00
2022-11-24T09:34:55.338Z,100.00
2022-11-24T09:37:21.962Z,97.57
2022-11-24T09:39:48.481Z,96.19
2022-11-24T09:42:16.690Z,96.91
2022-11-24T09:44:59.150Z,92.35
2022-11-24T09:47:38.949Z,90.55
2022-11-24T09:50:13.368Z,91.22
2022-11-24T09:52:44.753Z,90.64
2022-11-24T09:55:46.383Z,91.71
2022-11-24T09:58:21.243Z,90.58
2022-11-24T10:00:51.973Z,89.58
2022-11-24T10:03:27.267Z,89.65
2022-11-24T10:05:54.260Z,89.91
2022-11-24T10:08:42.970Z,89.83
2022-11-24T10:11:13.588Z,90.25
2022-11-24T10:14:10.092Z,87.58
2022-11-24T10:16:50.080Z,88.52
2022-11-24T10:19:37.038Z,88.12
2022-11-24T10:22:23.457Z,88.72
2022-11-24T10:25:08.640Z,85.08
2022-11-24T10:27:39.918Z,85.58
2022-11-24T10:30:14.083Z,85.35
2022-11-24T10:32:45.087Z,83.30
2022-11-24T10:35:17.500Z,81.99
2022-11-24T10:37:53.765Z,82.15
2022-11-24T10:40:59.038Z,82.20
2022-11-24T10:43:15.621Z,81.96
2022-11-24T10:45:42.125Z,81.03
2022-11-24T10:48:19.442Z,76.62
2022-11-24T10:50:47.502Z,77.45
2022-11-24T10:53:18.400Z,74.31
2022-11-24T10:56:03.036Z,73.74
2022-11-24T10:58:36.020Z,72.21
2022-11-24T11:01:20.951Z,71.75
2022-11-24T11:03:50.658Z,69.54
2022-11-24T11:06:23.081Z,69.72
2022-11-24T11:08:50.357Z,69.80
2022-11-24T11:11:21.661Z,68.81
2022-11-24T11:13:59.782Z,69.19
2022-11-24T11:16:34.615Z,69.09
2022-11-24T11:19:08.857Z,67.99
2022-11-24T11:21:59.965Z,68.48
2022-11-24T11:24:28.326Z,68.65
2022-11-24T11:27:00.078Z,67.79
2022-11-24T11:35:05.690Z,67.55
2022-11-24T11:37:34.177Z,65.43
2022-11-24T11:40:01.363Z,65.13
2022-11-24T11:43:00.769Z,65.06
2022-11-24T11:45:23.874Z,64.09
2022-11-24T11:47:53.885Z,64.57
2022-11-24T11:50:25.494Z,64.18
2022-11-24T11:53:09.203Z,64.55
2022-11-24T11:55:53.536Z,64.22
2022-11-24T11:58:37.669Z,64.14
2022-11-24T12:01:18.400Z,64.36
2022-11-24T12:03:58.962Z,61.98
2022-11-24T12:06:41.266Z,63.00
2022-11-24T12:09:23.845Z,63.28
2022-11-24T12:12:04.129Z,64.04
2022-11-24T12:14:39.492Z,63.09
2022-11-24T12:17:13.347Z,63.03
2022-11-24T12:20:01.799Z,62.28
2022-11-24T12:22:40.103Z,63.25
2022-11-24T12:25:22.734Z,62.90
2022-11-24T12:28:01.888Z,62.57
2022-11-24T12:30:37.802Z,60.97
2022-11-24T12:33:16.908Z,59.65
2022-11-24T12:35:46.337Z,61.08
2022-11-24T12:38:24.909Z,61.29
2022-11-24T12:48:08.333Z,60.00
2022-11-24T12:50:37.900Z,58.88
2022-11-24T12:53:12.079Z,59.80
2022-11-24T12:55:39.379Z,59.28
2022-11-24T12:58:14.331Z,59.93
2022-11-24T13:00:52.830Z,59.03
2022-11-24T13:03:32.805Z,59.55
2022-11-24T13:06:07.305Z,59.24
2022-11-24T13:08:36.516Z,58.89
2022-11-24T13:11:36.575Z,59.02
2022-11-24T13:14:11.469Z,59.56
2022-11-24T13:17:13.418Z,58.13
2022-11-24T13:19:36.975Z,58.83
2022-11-24T13:22:14.406Z,59.08
2022-11-24T13:24:42.222Z,58.89
2022-11-24T13:27:25.969Z,58.33
2022-11-24T13:29:54.342Z,57.60
2022-11-24T13:32:59.527Z,56.07
2022-11-24T13:35:26.408Z,56.54
2022-11-24T13:37:53.155Z,55.70
2022-11-24T13:40:54.257Z,56.77
2022-11-24T13:43:26.704Z,56.39
2022-11-24T13:45:54.587Z,55.37
2022-11-24T13:48:52.633Z,55.13
2022-11-24T13:51:23.973Z,54.14
2022-11-24T13:53:53.351Z,55.02
2022-11-24T13:56:24.896Z,56.13
2022-11-24T13:58:54.985Z,54.37
2022-11-24T14:01:24.917Z,54.06
2022-11-24T14:06:48.479Z,54.84
2022-11-24T14:09:22.482Z,54.68
2022-11-24T14:11:59.017Z,56.00
2022-11-24T14:14:25.837Z,56.42
2022-11-24T14:17:08.385Z,57.44
2022-11-24T14:19:35.086Z,57.60
2022-11-24T14:22:01.623Z,57.82
2022-11-24T14:24:35.433Z,58.86
2022-11-24T14:27:04.901Z,58.57
2022-11-24T14:29:31.421Z,58.54
2022-11-24T14:31:59.587Z,59.54
2022-11-24T14:34:29.576Z,60.06
2022-11-24T14:36:57.298Z,60.90
2022-11-24T14:39:25.782Z,61.43
2022-11-24T14:41:55.878Z,61.75
2022-11-24T14:44:24.952Z,62.11
2022-11-24T14:47:01.783Z,62.65
2022-11-24T14:49:31.317Z,62.71
2022-11-24T14:52:01.852Z,62.70
2022-11-24T14:54:28.969Z,63.41
2022-11-24T14:56:58.400Z,63.52
2022-11-24T14:59:27.416Z,64.29
2022-11-24T15:01:54.017Z,64.69
2022-11-24T15:04:46.177Z,65.80
2022-11-24T15:07:19.196Z,66.23
2022-11-24T15:09:51.611Z,66.57
2022-11-24T15:12:27.071Z,66.85
2022-11-24T15:14:55.551Z,67.64
2022-11-24T15:17:25.169Z,68.28
2022-11-24T15:19:56.453Z,68.68
2022-11-24T15:22:40.495Z,69.89
2022-11-24T15:25:31.503Z,70.41
2022-11-24T15:27:58.123Z,70.68
2022-11-24T15:30:24.834Z,70.91
2022-11-24T15:32:53.077Z,71.26
2022-11-24T15:35:19.904Z,71.43
2022-11-24T15:37:47.980Z,71.91
2022-11-24T15:40:15.017Z,72.57
2022-11-24T15:42:41.723Z,73.74
2022-11-24T15:45:10.381Z,74.58
2022-11-24T15:47:36.966Z,75.20
2022-11-24T15:50:03.897Z,75.85
2022-11-24T15:52:30.546Z,76.37
2022-11-24T15:54:58.801Z,77.00
2022-11-24T15:57:25.677Z,77.37
2022-11-24T15:59:52.273Z,77.69
2022-11-24T16:02:19.149Z,78.27
2022-11-24T16:04:45.628Z,78.45
2022-11-24T16:07:12.538Z,78.69
2022-11-24T16:09:39.627Z,78.92
2022-11-24T16:12:07.965Z,79.10
2022-11-24T16:14:34.854Z,79.32
2022-11-24T16:17:01.957Z,80.38
2022-11-24T16:19:28.643Z,81.35
2022-11-24T16:21:55.235Z,81.83
2022-11-24T16:24:21.808Z,81.68
2022-11-24T16:26:48.372Z,82.77
2022-11-24T16:29:16.195Z,83.29
2022-11-24T16:31:42.832Z,83.17
2022-11-24T16:34:09.402Z,83.96
2022-11-24T16:36:35.972Z,83.72
2022-11-24T16:39:02.488Z,84.02
2022-11-24T16:41:29.045Z,84.48
2022-11-24T16:43:55.671Z,84.25
2022-11-24T16:46:24.612Z,84.39
2022-11-24T16:48:52.737Z,85.04
2022-11-24T16:51:21.595Z,85.25
2022-11-24T16:53:48.807Z,86.77
2022-11-24T16:56:15.399Z,87.28
2022-11-24T16:58:41.969Z,88.39
2022-11-24T17:01:10.757Z,88.31
2022-11-24T17:03:39.185Z,87.99
2022-11-24T17:06:07.827Z,88.32
2022-11-24T17:08:35.857Z,88.24
2022-11-24T17:11:05.607Z,87.92
2022-11-24T17:13:32.544Z,88.54
2022-11-24T17:15:59.131Z,88.88
2022-11-24T17:18:25.830Z,89.09
2022-11-24T17:20:57.340Z,90.17
2022-11-24T17:23:23.899Z,91.24
2022-11-24T17:25:50.401Z,91.03
2022-11-24T17:28:17.171Z,91.46
2022-11-24T17:30:43.709Z,91.79
2022-11-24T17:33:10.324Z,92.15
2022-11-24T17:35:36.941Z,91.39
2022-11-24T17:38:04.935Z,92.39
2022-11-24T17:40:31.424Z,92.33
2022-11-24T17:42:58.390Z,92.61
2022-11-24T17:45:25.120Z,92.11
2022-11-24T17:47:51.772Z,92.06
2022-11-24T17:50:23.925Z,92.12
2022-11-24T17:52:52.527Z,93.03
2022-11-24T17:55:20.435Z,92.74
2022-11-24T17:57:47.058Z,92.77
2022-11-24T18:00:14.803Z,92.53
2022-11-24T18:02:41.798Z,92.58
2022-11-24T18:05:09.020Z,92.44
2022-11-24T18:07:35.864Z,92.47
2022-11-24T18:10:02.658Z,93.13
2022-11-24T18:12:30.594Z,93.60
2022-11-24T18:14:57.341Z,93.40
2022-11-24T18:17:23.913Z,94.14
2022-11-24T18:19:50.593Z,94.25
2022-11-24T18:22:17.654Z,94.28
2022-11-24T18:24:45.863Z,94.69
2022-11-24T18:27:12.453Z,94.27
2022-11-24T18:29:40.297Z,94.13
2022-11-24T18:32:06.900Z,94.24
2022-11-24T18:34:33.882Z,94.27
2022-11-24T18:37:00.705Z,94.02
2022-11-24T18:39:27.368Z,94.34
2022-11-24T18:41:53.943Z,94.00
2022-11-24T18:44:20.510Z,94.84
2022-11-24T18:46:48.754Z,95.41
2022-11-24T18:49:15.269Z,94.94
2022-11-24T18:51:41.826Z,95.48
2022-11-24T18:54:08.589Z,95.70
2022-11-24T18:56:35.142Z,95.71
2022-11-24T18:59:01.667Z,95.87
2022-11-24T19:01:28.655Z,95.46
2022-11-24T19:03:59.003Z,95.78
2022-11-24T19:06:27.675Z,95.57
2022-11-24T19:08:55.338Z,95.56
2022-11-24T19:11:24.286Z,95.87
2022-11-24T19:13:51.247Z,95.41
2022-11-24T19:16:19.543Z,96.09
2022-11-24T19:18:50.371Z,95.90
2022-11-24T19:21:22.213Z,96.31
2022-11-24T19:23:49.020Z,96.69
2022-11-24T19:26:15.616Z,96.79
2022-11-24T19:28:42.153Z,97.47
2022-11-24T19:31:11.824Z,96.34
2022-11-24T19:33:39.517Z,97.02
2022-11-24T19:36:08.352Z,97.21
2022-11-24T19:38:36.782Z,96.99
2022-11-24T19:41:04.945Z,97.13
2022-11-24T19:43:32.205Z,96.83
2022-11-24T19:46:02.468Z,97.00
2022-11-24T19:48:34.014Z,96.91
2022-11-24T19:51:01.049Z,97.10
2022-11-24T19:53:27.709Z,97.29
2022-11-24T19:55:56.173Z,97.63
2022-11-24T19:58:22.687Z,97.30
2022-11-24T20:00:49.256Z,97.40
2022-11-24T20:03:15.780Z,96.90
2022-11-24T20:05:42.324Z,96.61
2022-11-24T20:08:11.349Z,96.57
2022-11-24T20:10:38.239Z,96.92
2022-11-24T20:13:06.088Z,96.60
2022-11-24T20:15:33.553Z,96.51
2022-11-24T20:18:00.229Z,96.56
2022-11-24T20:20:26.820Z,96.83
2022-11-24T20:22:53.571Z,96.63
2022-11-24T20:25:20.227Z,97.34
2022-11-24T20:27:46.743Z,96.84
2022-11-24T20:30:14.868Z,97.05
2022-11-24T20:32:41.417Z,97.16
2022-11-24T20:35:12.320Z,96.73
2022-11-24T20:37:41.617Z,97.47
2022-11-24T20:40:09.644Z,97.51
2022-11-24T20:42:36.207Z,97.50
2022-11-24T20:45:03.138Z,97.15
2022-11-24T20:47:31.234Z,97.27
2022-11-24T20:49:57.794Z,97.64
2022-11-24T20:52:24.763Z,97.43
2022-11-24T20:54:51.247Z,98.15
2022-11-24T20:57:17.827Z,97.60
2022-11-24T20:59:44.455Z,97.85
2022-11-24T21:02:11.488Z,98.51
2022-11-24T21:04:39.751Z,98.56
2022-11-24T21:07:06.369Z,98.52
2022-11-24T21:09:33.002Z,98.88
2022-11-24T21:11:59.544Z,98.81
2022-11-24T21:14:28.202Z,98.65
2022-11-24T21:16:57.813Z,98.99
2022-11-24T21:19:24.362Z,98.77
2022-11-24T21:21:52.293Z,98.99
2022-11-24T21:24:19.238Z,98.62
2022-11-24T21:26:46.395Z,98.84
2022-11-24T21:29:13.875Z,98.79
2022-11-24T21:31:41.296Z,98.81
2022-11-24T21:34:08.700Z,98.60
2022-11-24T21:36:35.614Z,98.42
2022-11-24T21:39:03.992Z,98.35
2022-11-24T21:41:33.151Z,98.27
2022-11-24T21:43:59.885Z,98.48
2022-11-24T21:46:28.824Z,98.21
2022-11-24T21:48:55.362Z,98.40
2022-11-24T21:51:21.951Z,98.66
2022-11-24T21:53:48.492Z,99.04
2022-11-24T21:56:18.284Z,98.95
2022-11-24T21:58:45.770Z,99.28
2022-11-24T22:01:13.072Z,99.38
2022-11-24T22:03:39.822Z,99.81
2022-11-24T22:06:07.106Z,99.86
2022-11-24T22:08:33.622Z,99.30
2022-11-24T22:11:01.109Z,99.44
2022-11-24T22:13:29.039Z,99.64
2022-11-24T22:16:00.040Z,99.64
2022-11-24T22:18:29.443Z,99.95
2022-11-24T22:20:55.923Z,99.80
2022-11-24T22:23:22.505Z,100.00
2022-11-24T22:25:49.020Z,100.00
2022-11-24T22:28:15.548Z,100.00
2022-11-24T22:30:43.646Z,100.00
2022-11-24T22:33:10.279Z,100.00
2022-11-24T22:35:37.185Z,100.00
2022-11-24T22:38:03.719Z,100.00
2022-11-24T22:40:30.254Z,100.00
2022-11-24T22:42:57.832Z,100.00
2022-11-24T22:45:24.370Z,100.00
2022-11-24T22:47:54.946Z,100.00
2022-11-24T22:50:21.687Z,100.00
2022-11-24T22:52:50.379Z,100.00
2022-11-24T22:55:16.898Z,100.00
2022-11-24T22:57:47.951Z,100.00
2022-11-24T23:00:16.105Z,100.00
2022-11-24T23:02:42.761Z,100.00
2022-11-24T23:05:10.723Z,100.00
2022-11-24T23:07:37.275Z,100.00
2022-11-24T23:10:04.129Z,100.00
2022-11-24T23:12:30.623Z,100.00
2022-11-24T23:14:57.204Z,100.00
2022-11-24T23:17:23.757Z,100.00
2022-11-24T23:19:50.337Z,100.00
2022-11-24T23:22:18.166Z,100.00
2022-11-24T23:24:44.822Z,100.00
2022-11-24T23:27:11.597Z,100.00
2022-11-24T23:29:38.157Z,100.00
2022-11-24T23:32:05.260Z,100.00
2022-11-24T23:34:31.930Z,100.00
2022-11-24T23:36:58.441Z,100.00
2022-11-24T23:39:26.402Z,100.00
2022-11-24T23:41:52.892Z,100.00
2022-11-24T23:44:19.776Z,100.00
2022-11-24T23:46:46.377Z,100.00
2022-11-24T23:49:12.916Z,100.00
2022-11-24T23:51:39.410Z,100.00
2022-11-24T23:54:07.626Z,100.00
2022-11-24T23:56:36.312Z,100.00
2022-11-24T23:59:03.936Z,100.00
